Time;durP1;ratioP1;P1;durP2;ratioP2;P2;SDS_P1;SDS_P2;PMS_P1;PMS_P2;Temp;Humidity;BMP_temperature;BMP_pressure;BME280_temperature;BME280_humidity;BME280_pressure;Samples;Min_cycle;Max_cycle;Signal;HPM_P1;HPM_P2
2021/06/22 00:00:27;;;;;;;1999.90;999.90;;;17.10;99.90;;;;;;5015570;28;20169;-66
2021/06/22 00:02:53;;;;;;;1999.90;999.90;;;17.00;99.90;;;;;;5015555;28;20509;-67
2021/06/22 00:05:21;;;;;;;1999.90;999.90;;;17.10;99.90;;;;;;5015202;28;20410;-67
2021/06/22 00:07:48;;;;;;;1999.90;999.90;;;17.00;99.90;;;;;;5015321;28;20518;-67
2021/06/22 00:10:16;;;;;;;1999.90;999.90;;;17.00;99.90;;;;;;5015381;28;20401;-67
2021/06/22 00:12:41;;;;;;;1999.90;999.90;;;16.90;99.90;;;;;;5014310;28;20455;-67
2021/06/22 00:15:09;;;;;;;1999.90;999.90;;;16.90;99.90;;;;;;5014976;28;20517;-67
2021/06/22 00:17:35;;;;;;;1999.90;999.90;;;16.90;99.90;;;;;;5015169;28;20570;-67
2021/06/22 00:20:00;;;;;;;1999.90;999.90;;;16.80;99.90;;;;;;5015252;28;20419;-67
2021/06/22 00:22:26;;;;;;;1999.90;999.90;;;16.80;99.90;;;;;;5015092;28;20244;-67
2021/06/22 00:24:52;;;;;;;1999.90;999.90;;;16.70;99.90;;;;;;5015077;28;20212;-67
2021/06/22 00:27:18;;;;;;;1999.90;999.90;;;16.90;99.90;;;;;;5014937;28;20192;-67
2021/06/22 00:29:47;;;;;;;1999.90;999.90;;;16.90;99.90;;;;;;5015227;28;20761;-68
2021/06/22 00:32:13;;;;;;;1999.90;999.90;;;16.90;99.90;;;;;;5014958;28;20766;-67
2021/06/22 00:34:39;;;;;;;1999.90;999.90;;;17.00;99.90;;;;;;5014574;28;20462;-67
2021/06/22 00:37:04;;;;;;;1999.90;999.90;;;17.10;99.90;;;;;;5014726;28;20274;-67
2021/06/22 00:39:30;;;;;;;1999.90;999.90;;;17.10;99.90;;;;;;5013660;28;20169;-67
2021/06/22 00:41:56;;;;;;;1999.90;999.90;;;17.10;99.90;;;;;;5014732;28;20175;-67
2021/06/22 00:44:21;;;;;;;1999.90;999.90;;;17.00;99.90;;;;;;5014437;28;20239;-67
2021/06/22 00:46:47;;;;;;;1999.90;999.90;;;17.00;99.90;;;;;;5014692;28;20228;-67
2021/06/22 00:49:12;;;;;;;1999.90;999.90;;;17.10;99.90;;;;;;5014681;28;20627;-67
2021/06/22 00:51:38;;;;;;;1999.90;999.90;;;17.10;99.90;;;;;;5014631;28;20184;-67
2021/06/22 00:54:04;;;;;;;1999.90;999.90;;;17.10;99.90;;;;;;5014293;28;20201;-67
2021/06/22 00:56:31;;;;;;;1999.90;999.90;;;17.10;99.90;;;;;;5014434;28;20247;-67
2021/06/22 00:58:56;;;;;;;1999.90;999.90;;;17.10;99.90;;;;;;5014521;28;20501;-67
2021/06/22 01:01:22;;;;;;;1999.90;999.90;;;17.10;99.90;;;;;;5014475;28;20486;-67
2021/06/22 01:03:48;;;;;;;1999.90;999.90;;;17.00;99.90;;;;;;5014239;28;20176;-67
2021/06/22 01:06:13;;;;;;;1999.90;999.90;;;17.00;99.90;;;;;;5014142;28;20229;-66
2021/06/22 01:08:40;;;;;;;1999.90;999.90;;;17.00;99.90;;;;;;5014339;28;20269;-67
2021/06/22 01:11:06;;;;;;;1999.90;999.90;;;17.00;99.90;;;;;;5014271;28;20176;-66
2021/06/22 01:13:32;;;;;;;1999.90;999.90;;;17.00;99.90;;;;;;5014003;28;20462;-67
2021/06/22 01:15:57;;;;;;;1999.90;999.90;;;16.90;99.90;;;;;;5013899;28;20399;-67
2021/06/22 01:18:23;;;;;;;1999.90;999.90;;;16.90;99.90;;;;;;5014172;28;20172;-67
2021/06/22 01:20:49;;;;;;;1999.90;999.90;;;16.90;99.90;;;;;;5014080;28;20252;-67
2021/06/22 01:23:14;;;;;;;1999.90;999.90;;;16.90;99.90;;;;;;5014006;28;20548;-67
2021/06/22 01:25:40;;;;;;;1999.90;999.90;;;16.90;99.90;;;;;;5013687;28;20173;-66
2021/06/22 01:28:06;;;;;;;1999.90;999.90;;;16.90;99.90;;;;;;5013883;28;20288;-66
2021/06/22 01:30:33;;;;;;;1999.90;999.90;;;16.80;99.90;;;;;;5013926;28;20754;-67
2021/06/22 01:33:00;;;;;;;1999.90;999.90;;;16.70;99.90;;;;;;5013857;28;20511;-67
2021/06/22 01:35:28;;;;;;;1999.90;999.90;;;16.70;99.90;;;;;;5013651;28;20505;-67
2021/06/22 01:37:55;;;;;;;1999.90;999.90;;;16.80;99.90;;;;;;5013573;28;20478;-67
2021/06/22 01:40:21;;;;;;;1999.90;999.90;;;16.60;99.90;;;;;;5013648;28;20409;-66
2021/06/22 01:42:47;;;;;;;1999.90;999.90;;;16.60;99.90;;;;;;5013658;28;20893;-67
2021/06/22 01:45:13;;;;;;;1999.90;999.90;;;16.60;99.90;;;;;;5013314;28;20412;-66
2021/06/22 01:47:40;;;;;;;1999.90;999.90;;;16.60;99.90;;;;;;5013362;28;20258;-66
2021/06/22 01:50:07;;;;;;;1999.90;999.90;;;16.50;99.90;;;;;;5013438;28;20408;-67
2021/06/22 01:52:33;;;;;;;1999.90;999.90;;;16.50;99.90;;;;;;5013577;28;20413;-67
2021/06/22 01:55:04;;;;;;;1999.90;999.90;;;16.50;99.90;;;;;;5013136;28;20981;-66
2021/06/22 01:57:30;;;;;;;1999.90;999.90;;;16.60;99.90;;;;;;5013407;28;20200;-67
2021/06/22 01:59:56;;;;;;;1999.90;999.90;;;16.60;99.90;;;;;;5013312;28;21038;-67
2021/06/22 02:02:21;;;;;;;1999.90;999.90;;;16.60;99.90;;;;;;5013212;28;20181;-67
2021/06/22 02:04:47;;;;;;;1999.90;999.90;;;16.50;99.90;;;;;;5013022;28;20227;-67
2021/06/22 02:07:13;;;;;;;1999.90;999.90;;;16.50;99.90;;;;;;5013184;28;20227;-66
2021/06/22 02:09:38;;;;;;;1999.90;999.90;;;16.60;99.90;;;;;;5013160;28;20184;-67
2021/06/22 02:12:05;;;;;;;1999.90;999.90;;;16.60;99.90;;;;;;5013192;28;20653;-67
2021/06/22 02:14:30;;;;;;;1999.90;999.90;;;16.60;99.90;;;;;;5012816;28;20201;-67
2021/06/22 02:16:56;;;;;;;1999.90;999.90;;;16.60;99.90;;;;;;5012916;28;20430;-67
2021/06/22 02:19:22;;;;;;;1999.90;999.90;;;16.50;99.90;;;;;;5013075;28;20675;-67
2021/06/22 02:21:47;;;;;;;1999.90;999.90;;;16.50;99.90;;;;;;5012941;28;20181;-67
2021/06/22 02:24:13;;;;;;;1999.90;999.90;;;16.40;99.90;;;;;;5011386;28;20185;-67
2021/06/22 02:26:39;;;;;;;1999.90;999.90;;;16.30;99.90;;;;;;5012825;28;20674;-67
2021/06/22 02:29:04;;;;;;;1999.90;999.90;;;16.30;99.90;;;;;;5012889;28;20256;-67
2021/06/22 02:31:30;;;;;;;1999.90;999.90;;;16.30;99.90;;;;;;5012776;28;20679;-67
2021/06/22 02:33:56;;;;;;;1999.90;999.90;;;16.20;99.90;;;;;;5012461;28;20200;-67
2021/06/22 02:36:24;;;;;;;1999.90;999.90;;;16.20;99.90;;;;;;5012522;28;20209;-67
2021/06/22 02:38:51;;;;;;;1999.90;999.90;;;16.20;99.90;;;;;;5012629;28;20167;-67
2021/06/22 02:41:16;;;;;;;1999.90;999.90;;;16.20;99.90;;;;;;5012762;28;20408;-67
2021/06/22 02:43:42;;;;;;;1999.90;999.90;;;16.20;99.90;;;;;;5012538;28;20457;-67
2021/06/22 02:46:09;;;;;;;1999.90;999.90;;;16.20;99.90;;;;;;5012347;28;20168;-67
2021/06/22 02:48:34;;;;;;;1999.90;999.90;;;16.10;99.90;;;;;;5012527;28;20493;-67
2021/06/22 02:51:00;;;;;;;1999.90;999.90;;;16.20;99.90;;;;;;5012564;28;20558;-67
2021/06/22 02:53:25;;;;;;;1999.90;999.90;;;16.20;99.90;;;;;;5012388;28;20176;-66
2021/06/22 02:55:51;;;;;;;1999.90;999.90;;;16.20;99.90;;;;;;5012169;28;20946;-67
2021/06/22 02:58:17;;;;;;;1999.90;999.90;;;16.20;99.90;;;;;;5012359;28;20553;-66
2021/06/22 03:00:42;;;;;;;1999.90;999.90;;;16.20;99.90;;;;;;5012295;28;20180;-66
2021/06/22 03:03:08;;;;;;;1999.90;999.90;;;16.20;99.90;;;;;;5011824;28;20173;-67
2021/06/22 03:05:34;;;;;;;1999.90;999.90;;;16.20;99.90;;;;;;5012046;28;20181;-66
2021/06/22 03:08:00;;;;;;;1999.90;999.90;;;16.10;99.90;;;;;;5012298;28;20428;-66
2021/06/22 03:10:26;;;;;;;1999.90;999.90;;;16.20;99.90;;;;;;5012292;28;20180;-66
2021/06/22 03:12:52;;;;;;;1999.90;999.90;;;16.10;99.90;;;;;;5012291;28;20418;-65
2021/06/22 03:15:20;;;;;;;1999.90;999.90;;;16.10;99.90;;;;;;5011865;28;20465;-67
2021/06/22 03:17:46;;;;;;;1999.90;999.90;;;16.00;99.90;;;;;;5012105;28;20522;-66
2021/06/22 03:20:12;;;;;;;1999.90;999.90;;;16.00;99.90;;;;;;5012236;28;20444;-66
2021/06/22 03:22:38;;;;;;;1999.90;999.90;;;15.90;99.90;;;;;;5012158;28;20898;-66
2021/06/22 03:25:09;;;;;;;1999.90;999.90;;;15.80;99.90;;;;;;5011905;28;20831;-66
2021/06/22 03:27:35;;;;;;;1999.90;999.90;;;15.80;99.90;;;;;;5012083;28;20437;-66
2021/06/22 03:30:01;;;;;;;1999.90;999.90;;;15.80;99.90;;;;;;5012035;28;20408;-66
2021/06/22 03:32:26;;;;;;;1999.90;999.90;;;15.70;99.90;;;;;;5012077;28;20177;-66
2021/06/22 03:34:53;;;;;;;1999.90;999.90;;;15.80;99.90;;;;;;5011753;28;20198;-66
2021/06/22 03:37:19;;;;;;;1999.90;999.90;;;15.80;99.90;;;;;;5011836;28;20205;-66
2021/06/22 03:39:47;;;;;;;1999.90;999.90;;;15.80;99.90;;;;;;5011947;28;20751;-66
2021/06/22 03:42:13;;;;;;;1999.90;999.90;;;15.70;99.90;;;;;;5011980;28;20191;-66
2021/06/22 03:44:38;;;;;;;1999.90;999.90;;;15.70;99.90;;;;;;5011638;28;20930;-66
2021/06/22 03:47:04;;;;;;;1999.90;999.90;;;15.70;99.90;;;;;;5011897;28;20314;-66
2021/06/22 03:49:30;;;;;;;1999.90;999.90;;;15.70;99.90;;;;;;5011896;28;20680;-66
2021/06/22 03:51:56;;;;;;;1999.90;999.90;;;15.70;99.90;;;;;;5011894;28;20180;-66
2021/06/22 03:54:22;;;;;;;1999.90;999.90;;;15.50;99.90;;;;;;5029601;23;20497;-68
2021/06/22 03:56:47;;;;;;;1999.90;999.90;;;15.60;99.90;;;;;;4972909;28;20527;-67
2021/06/22 03:59:13;;;;;;;1999.90;999.90;;;15.70;99.90;;;;;;4972951;28;20901;-68
2021/06/22 04:01:39;;;;;;;1999.90;999.90;;;15.70;99.90;;;;;;4973035;28;20247;-68
2021/06/22 04:04:04;;;;;;;1999.90;999.90;;;15.70;99.90;;;;;;4972807;28;20221;-68
2021/06/22 04:06:30;;;;;;;1999.90;999.90;;;15.60;99.90;;;;;;4973079;28;20637;-68
2021/06/22 04:08:55;;;;;;;1999.90;999.90;;;15.60;99.90;;;;;;4972984;28;20652;-68
2021/06/22 04:11:22;;;;;;;1999.90;999.90;;;15.60;99.90;;;;;;4973143;28;20217;-68
2021/06/22 04:13:48;;;;;;;1999.90;999.90;;;15.50;99.90;;;;;;4974921;28;20229;-67
2021/06/22 04:16:13;;;;;;;1999.90;999.90;;;15.50;99.90;;;;;;4976619;28;20447;-67
2021/06/22 04:18:39;;;;;;;1999.90;999.90;;;15.40;99.90;;;;;;4976694;28;20670;-68
2021/06/22 04:21:04;;;;;;;1999.90;999.90;;;15.30;99.90;;;;;;4976582;28;20670;-68
2021/06/22 04:23:30;;;;;;;1999.90;999.90;;;15.30;99.90;;;;;;4976465;28;20203;-68
2021/06/22 04:25:56;;;;;;;1999.90;999.90;;;15.30;99.90;;;;;;4976012;28;20210;-68
2021/06/22 04:28:21;;;;;;;1999.90;999.90;;;15.30;99.90;;;;;;4976539;28;20546;-69
2021/06/22 04:30:47;;;;;;;1999.90;999.90;;;15.20;99.90;;;;;;4976352;28;20175;-68
2021/06/22 04:33:13;;;;;;;1999.90;999.90;;;15.20;99.90;;;;;;4976151;28;20177;-69
2021/06/22 04:35:39;;;;;;;1999.90;999.90;;;15.20;99.90;;;;;;4975780;28;20239;-67
2021/06/22 04:38:06;;;;;;;1999.90;999.90;;;15.20;99.90;;;;;;4976238;28;20171;-67
2021/06/22 04:40:33;;;;;;;1999.90;999.90;;;15.20;99.90;;;;;;4976079;28;20170;-68
2021/06/22 04:43:00;;;;;;;1999.90;999.90;;;15.30;99.90;;;;;;4976032;28;20405;-67
2021/06/22 04:45:26;;;;;;;1999.90;999.90;;;15.30;99.90;;;;;;4976012;28;20415;-68
2021/06/22 04:47:51;;;;;;;1999.90;999.90;;;15.30;99.90;;;;;;4976089;28;20421;-68
2021/06/22 04:50:17;;;;;;;1999.90;999.90;;;15.30;99.90;;;;;;4976038;28;20900;-67
2021/06/22 04:52:43;;;;;;;1999.90;999.90;;;15.40;99.90;;;;;;4975905;28;20557;-68
2021/06/22 04:55:13;;;;;;;1999.90;999.90;;;15.40;99.90;;;;;;4975282;28;20650;-67
2021/06/22 04:57:44;;;;;;;1999.90;999.90;;;15.30;99.90;;;;;;4976217;28;20186;-68
2021/06/22 05:00:11;;;;;;;1999.90;999.90;;;15.40;99.90;;;;;;4975898;28;20774;-68
2021/06/22 05:02:40;;;;;;;1999.90;999.90;;;15.50;99.90;;;;;;4975744;28;20418;-67
2021/06/22 05:05:06;;;;;;;1999.90;999.90;;;15.50;99.90;;;;;;4975495;28;20433;-68
2021/06/22 05:07:32;;;;;;;1999.90;999.90;;;15.60;99.90;;;;;;4975591;28;20449;-65
2021/06/22 05:09:58;;;;;;;1999.90;999.90;;;15.70;99.90;;;;;;4975783;28;20416;-66
2021/06/22 05:12:25;;;;;;;1999.90;999.90;;;15.80;99.90;;;;;;4975820;28;20419;-65
2021/06/22 05:14:50;;;;;;;1999.90;999.90;;;15.80;99.90;;;;;;4975388;28;20462;-68
2021/06/22 05:17:16;;;;;;;1999.90;999.90;;;15.90;99.90;;;;;;4975342;28;20900;-67
2021/06/22 05:19:42;;;;;;;1999.90;999.90;;;15.90;99.90;;;;;;4975110;28;20168;-67
2021/06/22 05:22:07;;;;;;;1999.90;999.90;;;15.90;99.90;;;;;;4975093;28;20180;-67
2021/06/22 05:24:33;;;;;;;1999.90;999.90;;;15.90;99.90;;;;;;4974061;28;20254;-67
2021/06/22 05:26:58;;;;;;;1999.90;999.90;;;15.90;99.90;;;;;;4975021;28;20203;-67
2021/06/22 05:29:24;;;;;;;1999.90;999.90;;;15.90;99.90;;;;;;4974952;28;20627;-68
2021/06/22 05:31:50;;;;;;;1999.90;999.90;;;16.00;99.90;;;;;;4977338;28;20186;-68
2021/06/22 05:34:15;;;;;;;1999.90;999.90;;;16.00;99.90;;;;;;4976381;28;20578;-68
2021/06/22 05:36:41;;;;;;;1999.90;999.90;;;16.00;99.90;;;;;;4977442;28;20179;-68
2021/06/22 05:39:06;;;;;;;1999.90;999.90;;;16.00;99.90;;;;;;4976927;28;20599;-68
2021/06/22 05:41:32;;;;;;;1999.90;999.90;;;16.00;99.90;;;;;;4976780;28;20650;-68
2021/06/22 05:43:58;;;;;;;1999.90;999.90;;;15.90;99.90;;;;;;4976609;28;20221;-68
2021/06/22 05:46:23;;;;;;;1999.90;999.90;;;15.90;99.90;;;;;;4976206;28;20167;-68
2021/06/22 05:48:49;;;;;;;1999.90;999.90;;;15.70;99.90;;;;;;4976743;28;20178;-68
2021/06/22 05:51:15;;;;;;;1999.90;999.90;;;15.70;99.90;;;;;;4976684;28;20170;-68
2021/06/22 05:53:40;;;;;;;1999.90;999.90;;;15.70;99.90;;;;;;4976191;28;20214;-68
2021/06/22 05:56:06;;;;;;;1999.90;999.90;;;15.70;99.90;;;;;;4976417;28;20466;-68
2021/06/22 05:58:31;;;;;;;1999.90;999.90;;;15.70;99.90;;;;;;4976283;28;20698;-68
2021/06/22 06:00:57;;;;;;;1999.90;999.90;;;15.80;99.90;;;;;;4976128;28;20161;-68
2021/06/22 06:03:22;;;;;;;1999.90;999.90;;;15.80;99.90;;;;;;4975857;28;20193;-68
2021/06/22 06:05:48;;;;;;;1999.90;999.90;;;15.80;99.90;;;;;;4975816;28;20178;-68
2021/06/22 06:08:14;;;;;;;1999.90;999.90;;;15.90;99.90;;;;;;4975666;28;20171;-68
2021/06/22 06:10:40;;;;;;;1999.90;999.90;;;15.90;99.90;;;;;;4975807;28;20177;-68
2021/06/22 06:13:05;;;;;;;1999.90;999.90;;;15.80;99.90;;;;;;4975766;28;20177;-68
2021/06/22 06:15:32;;;;;;;1999.90;999.90;;;15.80;99.90;;;;;;4975381;28;20452;-68
2021/06/22 06:17:57;;;;;;;1999.90;999.90;;;15.80;99.90;;;;;;4975572;28;20162;-68
2021/06/22 06:20:25;;;;;;;1999.90;999.90;;;15.80;99.90;;;;;;4975346;28;20961;-68
2021/06/22 06:22:50;;;;;;;1999.90;999.90;;;15.90;99.90;;;;;;4975179;28;20253;-68
2021/06/22 06:25:16;;;;;;;1999.90;999.90;;;15.80;99.90;;;;;;4975535;28;20465;-68
2021/06/22 06:30:15;;;;;;;1999.90;999.90;;;15.70;99.90;;;;;;4975168;28;20417;-68
2021/06/22 06:32:40;;;;;;;1999.90;999.90;;;15.80;99.90;;;;;;4974528;28;20417;-68
2021/06/22 06:35:07;;;;;;;1999.90;999.90;;;15.80;99.90;;;;;;4974473;28;20458;-68
2021/06/22 06:37:33;;;;;;;1999.90;999.90;;;15.70;99.90;;;;;;4974104;28;20193;-68
2021/06/22 06:39:59;;;;;;;1999.90;999.90;;;15.70;99.90;;;;;;4974736;28;20448;-68
2021/06/22 06:42:25;;;;;;;1999.90;999.90;;;15.70;99.90;;;;;;4975025;28;20171;-67
2021/06/22 06:44:51;;;;;;;1999.90;999.90;;;15.70;99.90;;;;;;4974142;28;20438;-68
2021/06/22 06:47:16;;;;;;;1999.90;999.90;;;15.80;99.90;;;;;;4974059;28;20190;-68
2021/06/22 06:49:42;;;;;;;1999.90;999.90;;;15.90;99.90;;;;;;4973838;28;20414;-68
2021/06/22 06:52:08;;;;;;;1999.90;999.90;;;15.80;99.90;;;;;;4974172;28;20175;-67
2021/06/22 06:54:33;;;;;;;1999.90;999.90;;;16.00;99.90;;;;;;4973749;28;20328;-66
2021/06/22 06:56:59;;;;;;;1999.90;999.90;;;16.10;99.90;;;;;;4973973;28;20207;-67
2021/06/22 06:59:25;;;;;;;1999.90;999.90;;;16.10;99.90;;;;;;4973995;28;20178;-68
2021/06/22 07:01:51;;;;;;;1999.90;999.90;;;16.10;99.90;;;;;;4973931;28;20583;-68
2021/06/22 07:04:16;;;;;;;1999.90;999.90;;;16.20;99.90;;;;;;4973705;28;20720;-68
2021/06/22 07:06:42;;;;;;;1999.90;999.90;;;16.20;99.90;;;;;;4973790;28;20414;-68
2021/06/22 07:09:08;;;;;;;1999.90;999.90;;;16.20;99.90;;;;;;4973917;28;20553;-68
2021/06/22 07:11:34;;;;;;;1999.90;999.90;;;16.30;99.90;;;;;;4973949;28;20559;-68
2021/06/22 07:13:59;;;;;;;1999.90;999.90;;;16.40;99.90;;;;;;4973284;28;20513;-68
2021/06/22 07:16:25;;;;;;;1999.90;999.90;;;16.60;99.90;;;;;;4973440;28;20170;-68
2021/06/22 07:18:51;;;;;;;1999.90;999.90;;;16.60;99.90;;;;;;4973592;28;20177;-68
2021/06/22 07:21:18;;;;;;;1999.90;999.90;;;16.60;99.90;;;;;;4973544;28;20169;-68
2021/06/22 07:23:44;;;;;;;1999.90;999.90;;;16.60;99.90;;;;;;4973304;28;20232;-67
2021/06/22 07:26:10;;;;;;;1999.90;999.90;;;16.70;99.90;;;;;;4973465;28;20423;-68
2021/06/22 07:28:36;;;;;;;1999.90;999.90;;;16.60;99.90;;;;;;4973846;28;20417;-67
2021/06/22 07:31:04;;;;;;;1999.90;999.90;;;16.70;99.90;;;;;;4973520;28;20230;-68
2021/06/22 07:33:29;;;;;;;1999.90;999.90;;;16.80;99.90;;;;;;4973316;28;20192;-67
2021/06/22 07:35:55;;;;;;;1999.90;999.90;;;16.80;99.90;;;;;;4973096;28;20583;-67
2021/06/22 07:38:20;;;;;;;1999.90;999.90;;;16.80;99.90;;;;;;4973253;28;20170;-68
2021/06/22 07:40:46;;;;;;;1999.90;999.90;;;16.80;99.90;;;;;;4973339;28;20175;-69
2021/06/22 07:43:13;;;;;;;1999.90;999.90;;;16.90;99.90;;;;;;4973186;28;20440;-68
2021/06/22 07:45:39;;;;;;;1999.90;999.90;;;17.00;99.90;;;;;;4972985;28;20282;-68
2021/06/22 07:48:05;;;;;;;1999.90;999.90;;;17.00;99.90;;;;;;4974398;28;20498;-67
2021/06/22 07:50:31;;;;;;;1999.90;999.90;;;17.10;99.90;;;;;;4977294;28;20185;-67
2021/06/22 07:52:57;;;;;;;1999.90;999.90;;;17.10;99.90;;;;;;4977046;28;20780;-67
2021/06/22 07:55:24;;;;;;;1999.90;999.90;;;17.40;99.90;;;;;;4976984;28;20223;-68
2021/06/22 07:57:50;;;;;;;1999.90;999.90;;;17.40;99.90;;;;;;4977365;28;20420;-68
2021/06/22 08:00:39;;;;;;;1999.90;999.90;;;17.60;99.90;;;;;;4977162;28;20417;-68
2021/06/22 08:03:07;;;;;;;1999.90;999.90;;;17.70;99.90;;;;;;4977482;28;20448;-68
2021/06/22 08:05:32;;;;;;;1999.90;999.90;;;17.90;99.90;;;;;;4976993;28;20445;-68
2021/06/22 08:07:58;;;;;;;1999.90;999.90;;;18.10;99.90;;;;;;4977031;28;20413;-68
2021/06/22 08:10:24;;;;;;;1999.90;999.90;;;18.30;99.90;;;;;;4976894;28;20180;-68
2021/06/22 08:12:49;;;;;;;1999.90;999.90;;;18.40;99.90;;;;;;4976792;28;20539;-67
2021/06/22 08:15:16;;;;;;;1999.90;999.90;;;18.40;99.90;;;;;;4976607;28;20568;-67
2021/06/22 08:17:42;;;;;;;1999.90;999.90;;;18.40;99.90;;;;;;4976958;28;20177;-68
2021/06/22 08:20:08;;;;;;;1999.90;999.90;;;18.50;99.90;;;;;;4976923;28;20911;-67
2021/06/22 08:22:34;;;;;;;1999.90;999.90;;;18.50;99.90;;;;;;4976721;28;20315;-68
2021/06/22 08:24:59;;;;;;;1999.90;999.90;;;18.40;99.90;;;;;;4976642;28;20965;-68
2021/06/22 08:27:25;;;;;;;1999.90;999.90;;;18.40;99.90;;;;;;4976757;28;20202;-69
2021/06/22 08:29:50;;;;;;;1999.90;999.90;;;18.50;99.90;;;;;;4976844;28;20175;-68
2021/06/22 08:32:16;;;;;;;1999.90;999.90;;;18.50;99.90;;;;;;4977276;28;20299;-68
2021/06/22 08:34:42;;;;;;;1999.90;999.90;;;18.40;99.90;;;;;;4976082;28;20216;-67
2021/06/22 08:37:07;;;;;;;1999.90;999.90;;;18.40;99.90;;;;;;4976749;28;20230;-68
2021/06/22 08:39:36;;;;;;;1999.90;999.90;;;18.60;99.90;;;;;;4977125;28;20179;-68
2021/06/22 08:42:03;;;;;;;1999.90;999.90;;;18.60;99.90;;;;;;4976972;28;20692;-68
2021/06/22 08:44:29;;;;;;;1999.90;999.90;;;18.80;99.90;;;;;;4976148;28;20443;-67
2021/06/22 08:46:56;;;;;;;1999.90;999.90;;;19.20;99.90;;;;;;4978798;28;20476;-67
2021/06/22 08:49:24;;;;;;;1999.90;999.90;;;19.40;99.90;;;;;;4977913;28;20413;-66
2021/06/22 08:51:51;;;;;;;1999.90;999.90;;;19.30;99.90;;;;;;4978605;28;20464;-66
2021/06/22 08:54:17;;;;;;;1999.90;999.90;;;19.20;99.90;;;;;;4976644;28;20818;-65
2021/06/22 08:56:42;;;;;;;1999.90;999.90;;;19.40;99.90;;;;;;4978313;28;20552;-65
2021/06/22 08:59:08;;;;;;;1999.90;999.90;;;19.30;99.90;;;;;;4976841;28;20186;-65
2021/06/22 09:01:34;;;;;;;1999.90;999.90;;;19.20;99.90;;;;;;4974947;28;20784;-66
2021/06/22 09:03:59;;;;;;;1999.90;999.90;;;19.20;99.90;;;;;;4975773;28;20205;-66
2021/06/22 09:06:26;;;;;;;1999.90;999.90;;;19.20;99.90;;;;;;4974358;28;20538;-66
2021/06/22 09:08:54;;;;;;;1999.90;999.90;;;19.10;99.90;;;;;;4983228;28;20471;-67
2021/06/22 09:11:20;;;;;;;1999.90;999.90;;;19.10;99.90;;;;;;4993556;28;20416;-67
2021/06/22 09:14:02;;;;;;;1999.90;999.90;;;18.90;99.90;;;;;;4993217;28;20867;-68
2021/06/22 09:16:28;;;;;;;1999.90;999.90;;;18.80;99.90;;;;;;4993171;28;20239;-67
2021/06/22 09:19:03;;;;;;;1999.90;999.90;;;18.70;99.90;;;;;;4993383;28;20435;-68
2021/06/22 09:21:29;;;;;;;1999.90;999.90;;;18.60;99.90;;;;;;4993913;28;20841;-68
2021/06/22 09:23:56;;;;;;;1999.90;999.90;;;18.50;99.90;;;;;;4993730;28;20427;-68
2021/06/22 09:26:30;;;;;;;1999.90;999.90;;;18.50;99.90;;;;;;4992792;28;20173;-68
2021/06/22 09:29:10;;;;;;;1999.90;999.90;;;18.50;99.90;;;;;;4990833;28;20416;-68
2021/06/22 09:31:36;;;;;;;1999.90;999.90;;;18.60;99.90;;;;;;4990568;28;20420;-67
2021/06/22 09:34:02;;;;;;;1999.90;999.90;;;18.60;99.90;;;;;;4990517;28;20432;-67
2021/06/22 09:36:30;;;;;;;1999.90;999.90;;;18.80;99.90;;;;;;4991037;28;20479;-67
2021/06/22 09:39:07;;;;;;;1999.90;999.90;;;18.80;99.90;;;;;;4991909;28;20422;-67
2021/06/22 09:41:35;;;;;;;1999.90;999.90;;;18.90;99.90;;;;;;4989423;28;20422;-67
2021/06/22 09:44:09;;;;;;;1999.90;999.90;;;19.00;99.90;;;;;;4991323;28;20456;-66
2021/06/22 09:46:43;;;;;;;1999.90;999.90;;;19.10;99.90;;;;;;4992410;28;20401;-66
2021/06/22 09:49:25;;;;;;;1999.90;999.90;;;19.10;99.90;;;;;;4991643;28;20496;-66
2021/06/22 09:51:57;;;;;;;1999.90;999.90;;;19.00;99.90;;;;;;4992442;28;20501;-66
2021/06/22 09:54:24;;;;;;;1999.90;999.90;;;18.90;99.90;;;;;;4991624;28;20474;-66
2021/06/22 09:57:18;;;;;;;1999.90;999.90;;;19.00;99.90;;;;;;4991699;28;20422;-66
2021/06/22 09:59:49;;;;;;;1999.90;999.90;;;18.90;99.90;;;;;;4989496;28;20422;-67
2021/06/22 10:02:15;;;;;;;1999.90;999.90;;;18.90;99.90;;;;;;4991570;28;20406;-66
2021/06/22 10:04:44;;;;;;;1999.90;999.90;;;18.70;99.90;;;;;;4990731;28;20430;-66
2021/06/22 10:07:12;;;;;;;1999.90;999.90;;;18.60;99.90;;;;;;4991744;28;20790;-67
2021/06/22 10:09:38;;;;;;;1999.90;999.90;;;18.60;99.90;;;;;;4991652;28;20447;-66
2021/06/22 10:12:14;;;;;;;1999.90;999.90;;;18.60;99.90;;;;;;4991284;28;21005;-66
2021/06/22 10:14:42;;;;;;;1999.90;999.90;;;18.80;99.90;;;;;;4991224;28;21050;-67
2021/06/22 10:17:13;;;;;;;1999.90;999.90;;;19.00;99.90;;;;;;4991704;28;20427;-67
2021/06/22 10:19:40;;;;;;;1999.90;999.90;;;19.40;99.90;;;;;;4991044;28;20428;-66
2021/06/22 10:22:06;;;;;;;1999.90;999.90;;;19.60;99.90;;;;;;4991333;28;20415;-66
2021/06/22 10:24:34;;;;;;;1999.90;999.90;;;19.80;99.90;;;;;;4990738;28;20432;-66
2021/06/22 10:27:00;;;;;;;1999.90;999.90;;;20.00;99.90;;;;;;4990706;28;20829;-66
2021/06/22 10:29:28;;;;;;;1999.90;999.90;;;20.30;99.90;;;;;;4991450;28;20421;-66
2021/06/22 10:31:56;;;;;;;1999.90;999.90;;;20.40;99.90;;;;;;4991353;28;20411;-67
2021/06/22 10:34:22;;;;;;;1999.90;999.90;;;20.40;99.90;;;;;;4990486;28;20501;-67
2021/06/22 10:36:56;;;;;;;1999.90;999.90;;;20.40;99.90;;;;;;4991265;28;20499;-66
2021/06/22 10:39:33;;;;;;;1999.90;999.90;;;20.40;99.90;;;;;;4991157;28;20410;-66
2021/06/22 10:42:08;;;;;;;1999.90;999.90;;;20.40;99.90;;;;;;4990502;28;20413;-65
2021/06/22 10:44:36;;;;;;;1999.90;999.90;;;20.40;99.90;;;;;;4990616;28;20439;-66
2021/06/22 10:47:22;;;;;;;1999.90;999.90;;;20.30;99.90;;;;;;4990787;28;20424;-66
2021/06/22 10:49:56;;;;;;;1999.90;999.90;;;20.30;99.90;;;;;;4990627;28;20419;-66
2021/06/22 10:52:41;;;;;;;1999.90;999.90;;;20.20;99.90;;;;;;4991222;28;20804;-67
2021/06/22 10:55:21;;;;;;;1999.90;999.90;;;20.10;99.90;;;;;;4990479;28;20478;-67
2021/06/22 11:00:29;;;;;;;1999.90;999.90;;;20.00;99.90;;;;;;4990634;28;20432;-66
2021/06/22 11:03:06;;;;;;;1999.90;999.90;;;19.90;99.90;;;;;;4990217;28;20408;-67
2021/06/22 11:05:40;;;;;;;1999.90;999.90;;;19.80;99.90;;;;;;4990189;28;20781;-66
2021/06/22 11:08:12;;;;;;;1999.90;999.90;;;19.80;99.90;;;;;;4990582;28;20402;-66
2021/06/22 11:10:39;;;;;;;1999.90;999.90;;;19.70;99.90;;;;;;4990241;28;20442;-67
2021/06/22 11:13:06;;;;;;;1999.90;999.90;;;19.80;99.90;;;;;;4990806;28;20422;-66
2021/06/22 11:15:53;;;;;;;1999.90;999.90;;;19.70;99.90;;;;;;4990291;28;20467;-66
2021/06/22 11:18:19;;;;;;;1999.90;999.90;;;19.80;99.90;;;;;;4990435;28;20930;-66
2021/06/22 11:20:53;;;;;;;1999.90;999.90;;;19.80;99.90;;;;;;4990407;28;20410;-67
2021/06/22 11:23:23;;;;;;;1999.90;999.90;;;19.70;99.90;;;;;;4994034;28;20436;-67
2021/06/22 11:25:51;;;;;;;1999.90;999.90;;;19.80;99.90;;;;;;4996163;28;20477;-66
2021/06/22 11:28:20;;;;;;;1999.90;999.90;;;19.90;99.90;;;;;;4996982;28;20419;-66
2021/06/22 11:30:48;;;;;;;1999.90;999.90;;;19.90;99.90;;;;;;4997141;28;20417;-66
2021/06/22 11:33:34;;;;;;;1999.90;999.90;;;19.90;99.90;;;;;;4996581;28;20422;-67
2021/06/22 11:36:19;;;;;;;1999.90;999.90;;;19.80;99.90;;;;;;4996788;28;20522;-67
2021/06/22 11:39:07;;;;;;;1999.90;999.90;;;19.80;99.90;;;;;;4997349;28;20437;-67
2021/06/22 11:41:34;;;;;;;1999.90;999.90;;;19.80;99.90;;;;;;4996357;28;20409;-66
2021/06/22 11:44:09;;;;;;;1999.90;999.90;;;19.80;99.90;;;;;;4996103;28;20478;-66
2021/06/22 11:46:35;;;;;;;1999.90;999.90;;;19.80;99.90;;;;;;4996798;28;20961;-67
2021/06/22 11:49:02;;;;;;;1999.90;999.90;;;19.80;99.90;;;;;;4996740;28;20401;-67
2021/06/22 11:51:48;;;;;;;1999.90;999.90;;;19.80;99.90;;;;;;4996887;28;20412;-67
2021/06/22 11:54:15;;;;;;;1999.90;999.90;;;19.70;99.90;;;;;;4985812;28;20565;-66
2021/06/22 11:56:43;;;;;;;1999.90;999.90;;;19.70;99.90;;;;;;4996382;28;20792;-67
2021/06/22 11:59:09;;;;;;;1999.90;999.90;;;19.80;99.90;;;;;;4996967;28;20423;-67
2021/06/22 12:01:35;;;;;;;1999.90;999.90;;;19.90;99.90;;;;;;4995480;28;20482;-67
2021/06/22 12:04:01;;;;;;;1999.90;999.90;;;20.00;99.90;;;;;;4995342;28;20202;-66